Terminal Aerodrome Forecast
Issued by NWS

Home | Current Version | Previous Version | Text Only | Print | Product List | Glossary On
Versions: 1 2 3 4 5 6 7 8 9 10 11 12 13 14 15 16 17 18 19 20 21
647
FTUS43 KILX 301753
TAFCMI
TAF
KCMI 301753Z 3018/3118 15012KT 2SM -RA BR VCTS OVC025CB
     FM301900 17012KT P6SM VCTS OVC025CB
      TEMPO 3021/3023 2SM TSRA BR OVC005CB
     FM310000 19010KT P6SM VCTS SCT005CB BKN080
     FM310300 23010KT P6SM SCT005 BKN080
     FM310700 26010KT 4SM -RA BR OVC003
     FM311400 32014KT 4SM -RA BR OVC005=

USA.gov is the U.S. government's official web portal to all federal, state and local government web resources and services.